Norvell, MI (49263)

1:12 AM EDT on August 03, 2015 (GMT -0400)
Deer Valley, Manchester | | Change Station
CLOSE
Current Station
Personal Weather Station
Location: Manchester, MI
Elevation: 1001 ft
Nearby Weather Stations

Elev 1001 ft 42.13 °N, 84.08 °W | Updated 2 seconds ago

Rain
Rain
62.2 °F
Feels Like 62.2 °F
N
3.1
Wind Variable Wind from SSE
Gusts 9.0 mph

Today
High -- | Low -- °F
--% Chance of Precip.
Yesterday
High -- | Low -- °F
Precip. -- in
6:31 AM 8:53 PM
Waning Gibbous, 89% visible
Pressure 29.74 in
Visibility 9.0 miles
Clouds Few 7500 ft
Overcast 9000 ft
Dew Point 61 °F
Humidity 95%
Rainfall 0.25 in
Snow Depth Not available.
UV 0 out of 12
Pollen 7.80 out of 12
Air Quality Not available.
Flu Activity Not available.
SPECI KJXN 030505Z 19015KT 9SM VCTS -RA FEW075 OVC090 17/16 A2974 RMK AO2 LTG DSNT ALQDS P0002 T01720161

More Conditions Fewer Conditions

Pressure 29.74 in
Visibility 9.0 miles
Clouds Few 7500 ft
Overcast 9000 ft
Dew Point 61 °F
Humidity 95%
Rainfall 0.25 in
Snow Depth Not available.
UV 0 out of 12
Pollen 7.80 out of 12
Air Quality Not available.
Flu Activity Not available.
SPECI KJXN 030505Z 19015KT 9SM VCTS -RA FEW075 OVC090 17/16 A2974 RMK AO2 LTG DSNT ALQDS P0002 T01720161

More Conditions Fewer Conditions

10-Day Weather Forecast

×

Almanac

Astronomy

Aug. 03, 2015 Rise Set
Actual Time
Civil Twilight
Nautical Twilight
Astronomical Twilight
Moon
Length of Visible Light
Length of Day
Tomorrow will be .
, % of the Moon is Illuminated

Today's Extremes

State Highs State Lows

Community

WunderPhotos

Upload Photos

1,843,585 photos uploaded!

WunderBlogs® & News

Nearby

Air Quality

  Air Quality AQ Index Pollutant
Not available.

Snow Depth

Station Depth Elevation

Earthquake Activity

City Distance Mag. Time & Date
Minimum magnitude displayed is 2.5.

Coastal Water Temperatures

Place Temperature

Stations

Nearby Weather Stations

Station Location Temp. Windchill Dew Point Humidity Wind Precip. Elev Updated Type